createdAt,value
2022-09-28T00:00:21.837Z,89.49
2022-09-28T00:03:23.605Z,89.53
2022-09-28T00:06:27.098Z,89.67
2022-09-28T00:09:28.943Z,90.21
2022-09-28T00:12:31.802Z,89.73
2022-09-28T00:15:33.875Z,90.79
2022-09-28T00:18:36.402Z,91.27
2022-09-28T00:21:39.980Z,90.34
2022-09-28T00:24:41.801Z,90.94
2022-09-28T00:27:44.115Z,90.01
2022-09-28T00:30:46.313Z,90.45
2022-09-28T00:33:53.452Z,90.03
2022-09-28T00:36:55.281Z,90.14
2022-09-28T00:39:57.123Z,90.87
2022-09-28T00:42:59.388Z,89.71
2022-09-28T00:46:10.962Z,89.02
2022-09-28T00:49:16.299Z,89.89
2022-09-28T00:52:55.148Z,90.05
2022-09-28T00:56:07.590Z,90.99
2022-09-28T00:59:09.687Z,89.70
2022-09-28T01:02:12.422Z,88.84
2022-09-28T01:05:15.069Z,90.69
2022-09-28T01:08:18.281Z,89.98
2022-09-28T01:11:20.364Z,91.11
2022-09-28T01:14:25.871Z,90.74
2022-09-28T01:17:45.084Z,90.93
2022-09-28T01:21:11.160Z,91.46
2022-09-28T01:24:13.013Z,91.56
2022-09-28T01:27:29.940Z,90.76
2022-09-28T01:30:37.652Z,90.38
2022-09-28T01:33:52.248Z,90.02
2022-09-28T01:36:56.834Z,90.46
2022-09-28T01:39:59.069Z,92.23
2022-09-28T01:43:11.669Z,91.10
2022-09-28T01:46:20.830Z,91.28
2022-09-28T01:49:27.667Z,90.89
2022-09-28T01:52:41.895Z,90.50
2022-09-28T01:55:48.190Z,90.20
2022-09-28T01:58:59.618Z,91.23
2022-09-28T02:02:08.418Z,91.80
2022-09-28T02:05:22.464Z,92.36
2022-09-28T02:08:34.523Z,92.06
2022-09-28T02:11:38.487Z,92.11
2022-09-28T02:14:41.953Z,91.80
2022-09-28T02:17:43.896Z,92.18
2022-09-28T02:20:53.337Z,93.39
2022-09-28T02:24:03.360Z,93.23
2022-09-28T02:27:16.443Z,93.79
2022-09-28T02:30:18.442Z,93.69
2022-09-28T02:33:23.789Z,95.30
2022-09-28T02:36:26.810Z,94.92
2022-09-28T02:39:28.989Z,95.36
2022-09-28T02:42:40.336Z,93.93
2022-09-28T02:46:06.873Z,93.46
2022-09-28T02:50:00.315Z,93.70
2022-09-28T02:53:17.137Z,93.78
2022-09-28T02:56:41.228Z,93.65
2022-09-28T03:00:05.722Z,92.41
2022-09-28T03:03:19.293Z,92.72
2022-09-28T03:06:46.480Z,93.34
2022-09-28T03:09:59.527Z,93.25
2022-09-28T03:13:02.996Z,91.99
2022-09-28T03:16:08.163Z,92.07
2022-09-28T03:19:12.791Z,93.72
2022-09-28T03:22:14.456Z,95.07
2022-09-28T03:25:16.491Z,95.34
2022-09-28T03:28:21.496Z,94.27
2022-09-28T03:31:24.585Z,93.96
2022-09-28T03:34:26.794Z,93.31
2022-09-28T03:37:29.110Z,93.55
2022-09-28T03:40:31.491Z,96.26
2022-09-28T03:43:33.431Z,94.92
2022-09-28T03:46:37.707Z,94.81
2022-09-28T03:49:43.886Z,93.95
2022-09-28T03:52:46.242Z,93.14
2022-09-28T03:55:48.827Z,92.95
2022-09-28T03:58:50.609Z,93.58
2022-09-28T04:01:52.951Z,93.69
2022-09-28T04:04:57.259Z,93.97
2022-09-28T04:07:59.498Z,93.88
2022-09-28T04:11:02.669Z,94.31
2022-09-28T04:14:04.869Z,95.23
2022-09-28T04:17:07.472Z,94.95
2022-09-28T04:20:10.014Z,94.82
2022-09-28T04:23:16.015Z,94.11
2022-09-28T04:26:24.300Z,94.04
2022-09-28T04:29:26.393Z,94.62
2022-09-28T04:32:31.066Z,93.68
2022-09-28T04:35:33.613Z,94.72
2022-09-28T04:38:52.237Z,95.40
2022-09-28T04:41:56.613Z,94.71
2022-09-28T04:45:00.098Z,94.67
2022-09-28T04:48:07.799Z,94.35
2022-09-28T04:51:40.155Z,93.88
2022-09-28T04:54:43.795Z,93.42
2022-09-28T04:57:46.013Z,93.50
2022-09-28T05:00:50.304Z,93.52
2022-09-28T05:04:12.278Z,93.79
2022-09-28T05:07:37.472Z,93.27
2022-09-28T05:10:44.438Z,93.37
2022-09-28T05:13:46.486Z,93.74
2022-09-28T05:16:51.510Z,93.35
2022-09-28T05:20:04.015Z,93.64
2022-09-28T05:23:09.880Z,92.98
2022-09-28T05:26:12.724Z,93.17
2022-09-28T05:29:14.782Z,93.79
2022-09-28T05:32:35.881Z,93.51
2022-09-28T05:35:52.515Z,92.68
2022-09-28T05:38:57.005Z,92.37
2022-09-28T05:42:00.106Z,91.98
2022-09-28T05:45:07.876Z,92.96
2022-09-28T05:48:11.281Z,91.73
2022-09-28T05:51:13.804Z,93.22
2022-09-28T05:54:20.243Z,93.39
2022-09-28T05:57:26.495Z,92.76
2022-09-28T06:00:30.004Z,91.83
2022-09-28T06:03:32.821Z,91.24
2022-09-28T06:06:36.810Z,91.72
2022-09-28T06:09:39.209Z,92.38
2022-09-28T06:12:55.635Z,92.64
2022-09-28T06:15:57.970Z,93.09
2022-09-28T06:19:02.304Z,91.84
2022-09-28T06:22:13.821Z,90.70
2022-09-28T06:25:30.378Z,91.31
2022-09-28T06:28:33.516Z,90.18
2022-09-28T06:31:35.735Z,89.59
2022-09-28T06:34:38.562Z,87.99
2022-09-28T06:37:41.437Z,88.16
2022-09-28T06:40:43.510Z,86.75
2022-09-28T06:43:48.147Z,87.05
2022-09-28T06:47:08.782Z,87.64
2022-09-28T06:50:33.116Z,88.12
2022-09-28T06:54:00.983Z,87.31
2022-09-28T06:57:14.282Z,87.24
2022-09-28T07:00:17.966Z,87.96
2022-09-28T07:03:23.099Z,87.23
2022-09-28T07:06:51.411Z,88.40
2022-09-28T07:10:13.322Z,89.13
2022-09-28T07:13:49.458Z,87.83
2022-09-28T07:17:12.450Z,86.86
2022-09-28T07:20:20.504Z,85.54
2022-09-28T07:23:30.965Z,84.45
2022-09-28T07:27:06.266Z,83.17
2022-09-28T07:30:34.378Z,82.53
2022-09-28T07:33:56.466Z,81.23
2022-09-28T07:37:05.383Z,82.45
2022-09-28T07:40:28.111Z,83.31
2022-09-28T07:43:30.463Z,83.97
2022-09-28T07:46:38.186Z,81.04
2022-09-28T07:49:46.915Z,82.29
2022-09-28T07:52:52.272Z,79.16
2022-09-28T07:56:09.243Z,79.21
2022-09-28T07:59:32.179Z,79.69
2022-09-28T08:03:13.849Z,78.95
2022-09-28T08:06:17.422Z,79.19
2022-09-28T08:09:20.102Z,79.11
2022-09-28T08:12:41.586Z,78.05
2022-09-28T08:16:07.689Z,78.20
2022-09-28T08:19:15.435Z,76.43
2022-09-28T08:22:19.406Z,77.68
2022-09-28T08:25:24.945Z,77.61
2022-09-28T08:28:27.375Z,78.13
2022-09-28T08:31:33.248Z,77.66
2022-09-28T08:34:49.110Z,74.74
2022-09-28T08:37:59.501Z,76.43
2022-09-28T08:41:41.439Z,77.61
2022-09-28T08:44:58.127Z,76.60
2022-09-28T08:48:42.034Z,76.58
2022-09-28T08:52:15.201Z,78.99
2022-09-28T08:55:36.678Z,76.63
2022-09-28T08:58:44.216Z,77.27
2022-09-28T09:02:03.684Z,76.23
2022-09-28T09:05:15.448Z,74.17
2022-09-28T09:08:38.135Z,72.93
2022-09-28T09:12:02.050Z,73.34
2022-09-28T09:15:34.061Z,75.11
2022-09-28T09:18:41.863Z,74.22
2022-09-28T09:22:18.842Z,72.87
2022-09-28T09:25:39.774Z,73.83
2022-09-28T09:29:22.795Z,74.24
2022-09-28T09:32:43.963Z,73.94
2022-09-28T09:35:47.031Z,72.91
2022-09-28T09:39:29.368Z,73.11
2022-09-28T09:43:01.748Z,71.74
2022-09-28T09:46:24.541Z,73.16
2022-09-28T09:50:12.031Z,69.26
2022-09-28T09:53:38.226Z,69.72
2022-09-28T09:57:07.121Z,70.74
2022-09-28T10:00:33.199Z,71.58
2022-09-28T10:03:48.999Z,69.81
2022-09-28T10:07:02.187Z,69.55
2022-09-28T10:10:11.175Z,70.39
2022-09-28T10:13:33.535Z,69.67
2022-09-28T10:16:39.143Z,67.01
2022-09-28T10:19:47.099Z,69.29
2022-09-28T10:23:17.772Z,68.06
2022-09-28T10:26:25.446Z,69.50
2022-09-28T10:29:30.536Z,67.91
2022-09-28T10:32:50.393Z,66.78
2022-09-28T10:36:07.454Z,68.20
2022-09-28T10:39:50.844Z,67.60
2022-09-28T10:43:00.575Z,68.17
2022-09-28T10:46:07.166Z,68.03
2022-09-28T10:49:17.184Z,67.81
2022-09-28T10:52:34.585Z,67.88
2022-09-28T10:55:37.235Z,71.31
2022-09-28T10:58:42.488Z,72.03
2022-09-28T11:02:02.918Z,72.38
2022-09-28T11:05:07.252Z,70.60
2022-09-28T11:08:26.109Z,69.10
2022-09-28T11:11:31.813Z,71.11
2022-09-28T11:14:44.563Z,70.20
2022-09-28T11:17:53.014Z,70.18
2022-09-28T11:21:11.701Z,70.43
2022-09-28T11:24:25.271Z,70.06
2022-09-28T11:27:31.292Z,70.76
2022-09-28T11:30:48.564Z,70.46
2022-09-28T11:34:58.717Z,70.42
2022-09-28T11:38:17.673Z,71.92
2022-09-28T11:41:41.099Z,72.43
2022-09-28T11:44:49.673Z,71.46
2022-09-28T11:47:58.129Z,72.04
2022-09-28T11:51:09.721Z,72.13
2022-09-28T11:54:34.195Z,73.03
2022-09-28T11:57:39.349Z,72.92
2022-09-28T12:00:47.488Z,71.97
2022-09-28T12:04:01.409Z,72.85
2022-09-28T12:07:09.438Z,71.69
2022-09-28T12:10:22.958Z,71.86
2022-09-28T12:13:28.083Z,71.62
2022-09-28T12:17:05.344Z,70.08
2022-09-28T12:20:31.371Z,70.09
2022-09-28T12:23:37.714Z,70.81
2022-09-28T12:26:44.063Z,71.33
2022-09-28T12:30:21.124Z,71.89
2022-09-28T12:33:23.390Z,72.52
2022-09-28T12:36:48.022Z,72.67
2022-09-28T12:40:20.407Z,72.75
2022-09-28T12:43:33.718Z,72.68
2022-09-28T12:46:42.505Z,73.44
2022-09-28T12:50:37.466Z,73.12
2022-09-28T12:53:27.629Z,72.88
2022-09-28T12:56:42.644Z,73.99
2022-09-28T13:00:03.242Z,74.42
2022-09-28T13:03:08.495Z,74.66
2022-09-28T13:06:47.612Z,72.78
2022-09-28T13:10:14.127Z,74.08
2022-09-28T13:13:45.248Z,72.55
2022-09-28T13:17:00.632Z,72.49
2022-09-28T13:20:20.440Z,72.23
2022-09-28T13:23:35.924Z,72.04
2022-09-28T13:26:41.674Z,72.98
2022-09-28T13:29:44.137Z,72.69
2022-09-28T13:32:49.400Z,71.64
2022-09-28T13:35:52.112Z,71.96
2022-09-28T13:39:04.720Z,70.65
2022-09-28T13:42:08.543Z,70.22
2022-09-28T13:45:14.043Z,70.47
2022-09-28T13:48:54.080Z,68.75
2022-09-28T13:52:15.245Z,68.80
2022-09-28T13:55:39.563Z,68.90
2022-09-28T13:58:48.321Z,67.78
2022-09-28T14:02:25.994Z,67.90
2022-09-28T14:05:46.839Z,68.34
2022-09-28T14:09:07.386Z,67.94
2022-09-28T14:12:38.969Z,67.97
2022-09-28T14:15:45.314Z,68.13
2022-09-28T14:19:07.521Z,67.44
2022-09-28T14:22:37.707Z,67.07
2022-09-28T14:25:45.603Z,67.73
2022-09-28T14:28:57.607Z,67.54
2022-09-28T14:32:06.313Z,68.53
2022-09-28T14:35:36.971Z,68.99
2022-09-28T14:39:05.578Z,69.70
2022-09-28T14:42:10.875Z,69.43
2022-09-28T14:45:12.946Z,70.08
2022-09-28T14:48:20.059Z,70.24
2022-09-28T14:51:26.878Z,70.36
2022-09-28T14:54:49.836Z,70.50
2022-09-28T14:57:55.606Z,70.45
2022-09-28T15:01:03.195Z,71.00
2022-09-28T15:04:08.877Z,71.19
2022-09-28T15:07:19.937Z,70.79
2022-09-28T15:10:28.561Z,70.59
2022-09-28T15:13:30.938Z,70.83
2022-09-28T15:16:34.543Z,70.13
2022-09-28T15:19:57.557Z,70.96
2022-09-28T15:23:00.404Z,71.62
2022-09-28T15:26:04.695Z,72.28
2022-09-28T15:29:17.729Z,72.41
2022-09-28T15:32:24.509Z,73.15
2022-09-28T15:35:28.636Z,73.62
2022-09-28T15:38:34.469Z,73.66
2022-09-28T15:41:37.312Z,73.58
2022-09-28T15:44:40.123Z,74.32
2022-09-28T15:47:46.113Z,74.63
2022-09-28T15:51:06.261Z,74.48
2022-09-28T15:54:19.740Z,75.09
2022-09-28T15:57:37.099Z,74.82
2022-09-28T16:00:40.493Z,74.97
2022-09-28T16:03:42.759Z,75.32
2022-09-28T16:06:44.936Z,76.05
2022-09-28T16:09:59.002Z,75.96
2022-09-28T16:13:17.506Z,75.93
2022-09-28T16:16:46.706Z,76.01
2022-09-28T16:19:49.411Z,76.54
2022-09-28T16:22:53.847Z,77.02
2022-09-28T16:26:00.634Z,76.63
2022-09-28T16:29:43.070Z,76.73
2022-09-28T16:32:54.991Z,77.57
2022-09-28T16:36:05.925Z,77.33
2022-09-28T16:39:08.637Z,77.39
2022-09-28T16:42:12.061Z,77.12
2022-09-28T16:45:23.582Z,77.80
2022-09-28T16:48:28.216Z,77.41
2022-09-28T16:51:31.041Z,77.62
2022-09-28T16:54:51.660Z,77.88
2022-09-28T16:57:54.350Z,78.83
2022-09-28T17:00:56.912Z,78.65
2022-09-28T17:03:59.509Z,78.58
2022-09-28T17:07:02.113Z,78.86
2022-09-28T17:10:12.783Z,79.17
2022-09-28T17:13:15.958Z,79.56
2022-09-28T17:16:42.675Z,79.16
2022-09-28T17:19:45.830Z,79.50
2022-09-28T17:22:48.301Z,79.02
2022-09-28T17:25:50.952Z,80.57
2022-09-28T17:28:54.307Z,79.22
2022-09-28T17:31:58.202Z,79.05
2022-09-28T17:35:23.065Z,79.05
2022-09-28T17:38:22.955Z,78.44
2022-09-28T17:41:25.369Z,78.67
2022-09-28T17:44:27.760Z,78.97
2022-09-28T17:47:34.321Z,78.83
2022-09-28T17:50:46.387Z,79.17
2022-09-28T17:53:49.977Z,79.90
2022-09-28T17:56:53.748Z,80.06
2022-09-28T17:59:56.626Z,79.78
2022-09-28T18:02:59.583Z,80.51
2022-09-28T18:06:08.273Z,80.30
2022-09-28T18:09:15.158Z,80.39
2022-09-28T18:12:18.104Z,80.37
2022-09-28T18:15:20.954Z,79.21
2022-09-28T18:18:25.771Z,79.43
2022-09-28T18:21:31.983Z,79.49
2022-09-28T18:24:34.563Z,80.24
2022-09-28T18:27:38.315Z,80.23
2022-09-28T18:30:42.810Z,79.98
2022-09-28T18:33:46.233Z,81.12
2022-09-28T18:36:49.270Z,81.31
2022-09-28T18:39:51.557Z,82.66
2022-09-28T18:42:53.765Z,83.09
2022-09-28T18:45:56.873Z,83.83
2022-09-28T18:48:59.628Z,83.60
2022-09-28T18:52:03.363Z,83.44
2022-09-28T18:55:08.542Z,82.97
2022-09-28T18:58:13.229Z,83.09
2022-09-28T19:01:29.973Z,83.38
2022-09-28T19:04:33.817Z,83.56
2022-09-28T19:07:36.451Z,84.23
2022-09-28T19:10:38.965Z,84.60
2022-09-28T19:13:41.107Z,86.04
2022-09-28T19:16:44.718Z,86.76
2022-09-28T19:19:47.585Z,85.76
2022-09-28T19:22:50.809Z,87.67
2022-09-28T19:25:53.173Z,87.71
2022-09-28T19:28:58.600Z,86.72
2022-09-28T19:32:01.448Z,87.57
2022-09-28T19:35:04.547Z,90.18
2022-09-28T19:38:07.016Z,89.17
2022-09-28T19:41:13.796Z,92.06
2022-09-28T19:44:27.946Z,91.93
2022-09-28T19:47:30.408Z,90.46
2022-09-28T19:50:32.410Z,90.38
2022-09-28T19:53:37.007Z,88.97
2022-09-28T19:56:38.934Z,89.19
2022-09-28T19:59:40.953Z,92.49
2022-09-28T20:02:43.579Z,94.56
2022-09-28T20:05:48.087Z,97.13
2022-09-28T20:08:51.212Z,95.44
2022-09-28T20:11:53.326Z,94.60
2022-09-28T20:14:55.390Z,91.83
2022-09-28T20:17:58.952Z,90.42
2022-09-28T20:21:06.286Z,91.42
2022-09-28T20:24:10.924Z,90.69
2022-09-28T20:27:13.212Z,91.39
2022-09-28T20:30:15.376Z,89.28
2022-09-28T20:33:27.494Z,88.86
2022-09-28T20:36:34.204Z,93.87
2022-09-28T20:39:36.188Z,93.58
2022-09-28T20:42:38.368Z,91.72
2022-09-28T20:45:40.498Z,90.50
2022-09-28T20:48:42.457Z,92.54
2022-09-28T20:51:45.258Z,91.36
2022-09-28T20:54:47.619Z,91.38
2022-09-28T20:57:51.029Z,91.93
2022-09-28T21:00:53.184Z,91.22
2022-09-28T21:04:01.133Z,92.83
2022-09-28T21:07:03.047Z,93.06
2022-09-28T21:10:05.994Z,93.85
2022-09-28T21:13:08.939Z,92.34
2022-09-28T21:16:12.662Z,98.64
2022-09-28T21:19:14.917Z,99.21
2022-09-28T21:22:16.672Z,98.07
2022-09-28T21:25:19.062Z,96.11
2022-09-28T21:28:21.290Z,96.67
2022-09-28T21:31:28.488Z,96.18
2022-09-28T21:34:31.377Z,94.60
2022-09-28T21:37:33.595Z,95.44
2022-09-28T21:40:36.236Z,94.28
2022-09-28T21:43:39.451Z,91.98
2022-09-28T21:46:42.446Z,90.45
2022-09-28T21:49:44.296Z,92.48
2022-09-28T21:52:46.715Z,92.61
2022-09-28T21:55:53.192Z,92.61
2022-09-28T21:58:55.463Z,92.19
2022-09-28T22:01:57.325Z,92.37
2022-09-28T22:04:59.399Z,91.31
2022-09-28T22:08:02.006Z,90.30
2022-09-28T22:11:08.409Z,90.81
2022-09-28T22:14:11.017Z,90.85
2022-09-28T22:17:12.754Z,92.17
2022-09-28T22:20:15.047Z,93.17
2022-09-28T22:23:17.699Z,93.54
2022-09-28T22:26:23.559Z,92.47
2022-09-28T22:29:26.437Z,91.76
2022-09-28T22:32:28.225Z,91.28
2022-09-28T22:35:30.589Z,90.95
2022-09-28T22:38:32.847Z,91.09
2022-09-28T22:41:35.561Z,91.90
2022-09-28T22:44:48.262Z,92.30
2022-09-28T22:47:50.566Z,92.54
2022-09-28T22:50:52.390Z,96.79
2022-09-28T22:53:54.973Z,98.21
2022-09-28T22:56:56.726Z,98.29
2022-09-28T22:59:58.520Z,96.95
2022-09-28T23:03:00.304Z,96.92
2022-09-28T23:06:02.341Z,96.53
2022-09-28T23:09:04.861Z,94.92
2022-09-28T23:12:06.818Z,94.44
2022-09-28T23:15:09.411Z,95.35
2022-09-28T23:18:11.715Z,94.76
2022-09-28T23:21:15.590Z,94.10
2022-09-28T23:24:18.039Z,94.13
2022-09-28T23:27:20.583Z,93.17
2022-09-28T23:30:24.986Z,93.93
2022-09-28T23:33:27.370Z,95.21
2022-09-28T23:36:29.055Z,94.50
2022-09-28T23:39:31.409Z,95.30
2022-09-28T23:42:34.772Z,94.34
2022-09-28T23:45:37.216Z,92.73
2022-09-28T23:48:39.017Z,91.82
2022-09-28T23:51:40.751Z,91.26
2022-09-28T23:54:42.819Z,91.90
2022-09-28T23:57:44.709Z,91.32
